Christiansted, VI (00821)

10:50 AM AST on September 19, 2014 (GMT -0400)
Judith Hill | Change Station
CLOSE
Current Station
Personal Weather Station
Location: Christiansted, ST. CROIX
Elevation: 26 ft
Nearby Weather Stations

Elev 26 ft 17.77 °N, 64.74 °W | Updated 9 seconds ago

Scattered Clouds
Scattered Clouds
87.4 °F
Feels Like 101 °F
N
10.7
Wind Variable Wind from East
Gusts 22.8 mph

Today
High -- | Low -- °F
--% Chance of Precip.
Yesterday
High -- | Low -- °F
Precip. -- in
6:07 AM 6:17 PM
Waning Crescent, 19% visible
Pressure 29.99 in
Visibility 10.0 miles
Clouds Few 2600 ft
Scattered Clouds 4000 ft
Heat Index 101 °F
Dew Point 78 °F
Humidity 74%
Rainfall 0.00 in
Snow Depth Not available.
UV 6 out of 12
Pollen Not available.
Air Quality Not available.
Flu Activity Not available.
METAR TISX 191353Z 09015KT 10SM FEW026 SCT040 31/24 A2999 RMK AO2 SLP153 T03110239

More Conditions Fewer Conditions

Pressure 29.99 in
Visibility 10.0 miles
Clouds Few 2600 ft
Scattered Clouds 4000 ft
Heat Index 101 °F
Dew Point 78 °F
Humidity 74%
Rainfall 0.00 in
Snow Depth Not available.
UV 6 out of 12
Pollen Not available.
Air Quality Not available.
Flu Activity Not available.
METAR TISX 191353Z 09015KT 10SM FEW026 SCT040 31/24 A2999 RMK AO2 SLP153 T03110239

More Conditions Fewer Conditions

10-Day Weather Forecast

Almanac

Astronomy

Sep. 19, 2014 Rise Set
Actual Time 6:07 AM AST 6:17 PM AST
Civil Twilight 5:45 AM AST 6:39 PM AST
Nautical Twilight 5:20 AM AST 7:04 PM AST
Astronomical Twilight 4:54 AM AST 7:29 PM AST
Moon 2:17 AM AST 3:17 PM AST
Length of Visible Light 12h 53m
Length of Day
12h 10m
Tomorrow will be 1m 0s shorter.
Waning Crescent, 19% of the Moon is Illuminated
Today
Waning Crescent
Sep 24
New
Oct 1
First Quarter
Oct 8
Full
Oct 15
Last Quarter

Community

WunderPhotos

Upload Photos

1,754,630 photos uploaded!

WunderBlogs® & News

Nearby

Snow Depth

Station Depth Elevation
No new snow has been reported.

Earthquake Activity

City Distance Mag. Time & Date
No recent earthquake activity has been reported nearby.
Minimum magnitude displayed is 2.5.

Coastal Water Temperatures

Place Temperature
Lime Tree Bay, VI 86.0 °F
Christiansted Harbor, Virgin Islands 84.9 °F
Magueyes Islands, PR 84.9 °F
Yabucoa Harbor, PR 84.0 °F
Esperanza, PR 84.9 °F
Mayaguez, PR 84.9 °F
Charlotte Amalie, VI 86.0 °F
San Juan, PR 84.9 °F

Nearby Weather Stations